createdAt,value
2022-09-21T00:02:19.373Z,19.83
2022-09-21T00:05:24.472Z,21.00
2022-09-21T00:08:29.538Z,17.75
2022-09-21T00:11:35.227Z,17.67
2022-09-21T00:14:40.335Z,17.75
2022-09-21T00:17:48.261Z,17.85
2022-09-21T00:20:53.424Z,19.70
2022-09-21T00:23:59.567Z,18.17
2022-09-21T00:27:04.544Z,17.23
2022-09-21T00:30:10.345Z,14.57
2022-09-21T00:33:18.031Z,21.23
2022-09-21T00:36:23.789Z,19.67
2022-09-21T00:39:28.937Z,16.73
2022-09-21T00:42:34.766Z,17.83
2022-09-21T00:45:40.178Z,25.80
2022-09-21T00:48:47.871Z,19.02
2022-09-21T00:51:53.488Z,15.90
2022-09-21T00:55:00.171Z,19.90
2022-09-21T00:58:06.443Z,16.48
2022-09-21T01:01:11.708Z,18.83
2022-09-21T01:04:19.907Z,24.15
2022-09-21T01:07:27.821Z,18.10
2022-09-21T01:10:35.724Z,20.27
2022-09-21T01:13:47.548Z,23.33
2022-09-21T01:16:56.293Z,20.13
2022-09-21T01:20:16.311Z,19.85
2022-09-21T01:23:34.942Z,20.80
2022-09-21T01:26:48.027Z,25.42
2022-09-21T01:29:58.751Z,29.50
2022-09-21T01:33:07.583Z,31.67
2022-09-21T01:36:16.065Z,24.80
2022-09-21T01:39:21.773Z,21.63
2022-09-21T01:42:28.736Z,29.67
2022-09-21T01:45:38.025Z,23.88
2022-09-21T01:48:45.179Z,22.02
2022-09-21T01:51:53.665Z,19.55
2022-09-21T01:55:01.871Z,27.20
2022-09-21T01:58:12.870Z,22.20
2022-09-21T02:01:23.015Z,23.05
2022-09-21T02:04:28.101Z,23.08
2022-09-21T02:07:33.839Z,23.35
2022-09-21T02:10:41.118Z,23.92
2022-09-21T02:13:48.573Z,22.63
2022-09-21T02:16:58.664Z,27.75
2022-09-21T02:20:08.872Z,28.17
2022-09-21T02:23:15.687Z,28.30
2022-09-21T02:26:21.973Z,28.67
2022-09-21T02:29:28.860Z,27.90
2022-09-21T02:32:39.053Z,30.98
2022-09-21T02:35:48.654Z,30.40
2022-09-21T02:38:56.387Z,27.55
2022-09-21T02:42:04.727Z,33.58
2022-09-21T02:45:13.108Z,30.85
2022-09-21T02:48:22.819Z,30.08
2022-09-21T02:51:29.736Z,32.75
2022-09-21T02:54:35.352Z,32.60
2022-09-21T02:57:40.961Z,27.40
2022-09-21T03:00:46.212Z,29.42
2022-09-21T03:03:54.137Z,27.58
2022-09-21T03:06:59.999Z,31.30
2022-09-21T03:10:05.152Z,24.35
2022-09-21T03:13:11.567Z,27.05
2022-09-21T03:16:16.939Z,23.40
2022-09-21T03:19:25.028Z,24.10
2022-09-21T03:22:30.095Z,23.80
2022-09-21T03:25:35.328Z,19.08
2022-09-21T03:28:40.438Z,20.08
2022-09-21T03:31:45.943Z,28.60
2022-09-21T03:34:53.616Z,21.75
2022-09-21T03:37:59.764Z,19.70
2022-09-21T03:41:05.137Z,17.80
2022-09-21T03:44:10.553Z,19.67
2022-09-21T03:47:15.467Z,16.40
2022-09-21T03:50:23.251Z,17.90
2022-09-21T03:53:28.348Z,23.85
2022-09-21T03:56:33.409Z,13.43
2022-09-21T03:59:38.689Z,17.65
2022-09-21T04:02:43.976Z,18.33
2022-09-21T04:05:54.919Z,21.20
2022-09-21T04:09:00.738Z,15.77
2022-09-21T04:12:05.848Z,16.73
2022-09-21T04:15:11.762Z,22.27
2022-09-21T04:18:16.835Z,23.85
2022-09-21T04:21:24.921Z,15.38
2022-09-21T04:24:31.383Z,15.98
2022-09-21T04:27:36.728Z,17.30
2022-09-21T04:30:42.075Z,15.57
2022-09-21T04:33:47.219Z,25.20
2022-09-21T04:36:56.011Z,15.32
2022-09-21T04:40:01.177Z,18.67
2022-09-21T04:43:06.567Z,17.45
2022-09-21T04:46:12.013Z,18.67
2022-09-21T04:49:16.953Z,17.30
2022-09-21T04:52:24.525Z,17.02
2022-09-21T04:55:29.671Z,16.40
2022-09-21T04:58:35.018Z,16.95
2022-09-21T05:01:40.143Z,23.10
2022-09-21T05:04:50.121Z,24.42
2022-09-21T05:07:58.483Z,21.05
2022-09-21T05:11:01.241Z,23.17
2022-09-21T05:14:06.206Z,21.42
2022-09-21T05:17:11.426Z,21.88
2022-09-21T05:20:16.524Z,23.35
2022-09-21T05:23:24.121Z,31.10
2022-09-21T05:26:29.347Z,20.63
2022-09-21T05:29:34.811Z,21.75
2022-09-21T05:32:45.227Z,21.50
2022-09-21T05:35:54.404Z,20.02
2022-09-21T05:39:02.634Z,22.83
2022-09-21T05:42:08.368Z,19.02
2022-09-21T05:45:16.241Z,18.70
2022-09-21T05:48:22.671Z,17.13
2022-09-21T05:51:32.942Z,24.40
2022-09-21T05:54:47.440Z,20.77
2022-09-21T05:57:55.043Z,18.13
2022-09-21T06:01:05.330Z,15.98
2022-09-21T06:04:10.976Z,16.10
2022-09-21T06:07:16.053Z,17.55
2022-09-21T06:10:24.428Z,16.30
2022-09-21T06:13:30.179Z,22.13
2022-09-21T06:16:40.114Z,18.05
2022-09-21T06:19:45.319Z,16.58
2022-09-21T06:22:50.279Z,14.75
2022-09-21T06:25:58.891Z,15.60
2022-09-21T06:32:09.075Z,13.45
2022-09-21T06:35:14.195Z,16.50
2022-09-21T06:38:19.379Z,13.00
2022-09-21T06:41:26.962Z,15.75
2022-09-21T06:44:32.174Z,17.40
2022-09-21T06:47:37.093Z,12.35
2022-09-21T06:50:42.057Z,18.85
2022-09-21T06:53:47.102Z,15.55
2022-09-21T06:56:59.815Z,14.60
2022-09-21T07:00:05.136Z,16.42
2022-09-21T07:03:13.144Z,14.48
2022-09-21T07:06:18.729Z,12.60
2022-09-21T07:12:52.217Z,12.60
2022-09-21T07:15:57.305Z,14.00
2022-09-21T07:19:10.333Z,21.48
2022-09-21T07:22:16.099Z,15.23
2022-09-21T07:25:21.023Z,22.65
2022-09-21T07:28:28.682Z,20.02
2022-09-21T07:31:33.912Z,16.85
2022-09-21T07:34:39.950Z,15.57
2022-09-21T07:37:45.038Z,19.85
2022-09-21T07:40:50.349Z,19.92
2022-09-21T07:43:58.212Z,22.35
2022-09-21T07:47:03.583Z,21.70
2022-09-21T07:50:09.409Z,22.58
2022-09-21T07:53:16.530Z,20.98
2022-09-21T07:56:21.792Z,13.52
2022-09-21T07:59:27.294Z,15.20
2022-09-21T08:02:32.403Z,13.80
2022-09-21T08:05:37.484Z,9.23
2022-09-21T08:08:42.513Z,13.60
2022-09-21T08:11:47.447Z,11.57
2022-09-21T08:14:55.224Z,11.00
2022-09-21T08:18:03.015Z,12.00
2022-09-21T08:21:08.392Z,13.68
2022-09-21T08:24:13.857Z,12.30
2022-09-21T08:27:19.530Z,12.05
2022-09-21T08:30:28.261Z,11.50
2022-09-21T08:36:38.263Z,12.15
2022-09-21T08:39:43.347Z,16.75
2022-09-21T08:42:51.419Z,12.98
2022-09-21T08:45:59.404Z,12.35
2022-09-21T08:49:07.256Z,8.38
2022-09-21T08:52:16.732Z,13.97
2022-09-21T08:55:24.451Z,10.73
2022-09-21T08:58:31.227Z,17.20
2022-09-21T09:01:49.382Z,16.63
2022-09-21T09:05:00.842Z,12.43
2022-09-21T09:08:18.279Z,14.98
2022-09-21T09:11:31.525Z,9.82
2022-09-21T09:14:45.656Z,10.77
2022-09-21T09:17:58.820Z,9.23
2022-09-21T09:21:06.773Z,11.80
2022-09-21T09:24:14.645Z,9.35
2022-09-21T09:27:22.832Z,16.23
2022-09-21T09:30:28.645Z,9.30
2022-09-21T09:33:40.106Z,12.07
2022-09-21T09:36:58.258Z,10.95
2022-09-21T09:40:04.888Z,11.02
2022-09-21T09:43:13.857Z,15.85
2022-09-21T09:46:23.766Z,9.40
2022-09-21T09:49:36.439Z,9.15
2022-09-21T09:52:41.971Z,11.65
2022-09-21T09:55:49.166Z,11.43
2022-09-21T09:58:56.291Z,9.68
2022-09-21T10:02:03.159Z,9.60
2022-09-21T10:05:21.540Z,7.38
2022-09-21T10:08:31.207Z,9.60
2022-09-21T10:11:40.617Z,9.07
2022-09-21T10:14:51.407Z,8.60
2022-09-21T10:18:01.569Z,4.75
2022-09-21T10:21:10.048Z,8.60
2022-09-21T10:24:21.950Z,8.15
2022-09-21T10:27:28.781Z,6.28
2022-09-21T10:30:38.985Z,7.43
2022-09-21T10:33:50.202Z,10.98
2022-09-21T10:36:59.715Z,8.48
2022-09-21T10:40:05.137Z,6.88
2022-09-21T10:43:25.641Z,11.45
2022-09-21T10:46:37.185Z,5.47
2022-09-21T10:49:46.429Z,13.50
2022-09-21T10:52:57.125Z,9.23
2022-09-21T10:56:19.392Z,4.90
2022-09-21T10:59:26.879Z,3.33
2022-09-21T11:02:39.368Z,3.05
2022-09-21T11:05:46.163Z,3.78
2022-09-21T11:08:57.412Z,3.78
2022-09-21T11:12:05.400Z,3.75
2022-09-21T11:15:17.841Z,4.00
2022-09-21T11:18:25.366Z,1.92
2022-09-21T11:21:34.324Z,4.47
2022-09-21T11:24:48.661Z,5.53
2022-09-21T11:27:56.286Z,4.03
2022-09-21T11:31:19.220Z,3.73
2022-09-21T11:34:39.870Z,2.78
2022-09-21T11:37:52.843Z,8.07
2022-09-21T11:41:06.701Z,3.65
2022-09-21T11:44:20.539Z,2.63
2022-09-21T11:47:38.423Z,3.33
2022-09-21T11:50:48.181Z,3.55
2022-09-21T11:54:03.583Z,5.68
2022-09-21T11:57:19.133Z,5.05
2022-09-21T12:00:25.849Z,4.40
2022-09-21T12:03:38.310Z,5.47
2022-09-21T12:06:49.268Z,3.78
2022-09-21T12:10:11.148Z,5.50
2022-09-21T12:13:23.673Z,8.45
2022-09-21T12:16:32.116Z,3.78
2022-09-21T12:19:41.085Z,5.00
2022-09-21T12:22:48.014Z,6.55
2022-09-21T12:25:55.037Z,7.20
2022-09-21T12:29:04.581Z,5.97
2022-09-21T12:32:12.244Z,3.63
2022-09-21T12:35:19.034Z,4.70
2022-09-21T12:38:26.342Z,4.55
2022-09-21T12:41:35.862Z,5.38
2022-09-21T12:44:54.964Z,4.05
2022-09-21T12:48:02.581Z,5.68
2022-09-21T12:51:11.037Z,7.43
2022-09-21T12:54:21.939Z,5.07
2022-09-21T12:57:53.510Z,6.57
2022-09-21T13:01:05.736Z,3.40
2022-09-21T13:04:25.935Z,6.95
2022-09-21T13:07:55.546Z,6.28
2022-09-21T13:11:04.999Z,6.13
2022-09-21T13:14:10.186Z,5.63
2022-09-21T13:17:23.885Z,4.65
2022-09-21T13:20:29.069Z,7.80
2022-09-21T13:23:40.157Z,6.18
2022-09-21T13:26:46.806Z,9.38
2022-09-21T13:30:11.894Z,5.05
2022-09-21T13:33:35.809Z,5.72
2022-09-21T13:36:41.372Z,4.85
2022-09-21T13:39:47.039Z,11.75
2022-09-21T13:42:52.075Z,10.07
2022-09-21T13:46:01.014Z,13.35
2022-09-21T13:49:17.094Z,6.65
2022-09-21T13:52:29.335Z,10.50
2022-09-21T13:55:35.764Z,5.30
2022-09-21T13:58:45.965Z,10.77
2022-09-21T14:01:51.839Z,5.65
2022-09-21T14:04:59.652Z,8.93
2022-09-21T14:08:05.637Z,6.07
2022-09-21T14:11:11.220Z,7.47
2022-09-21T14:14:21.732Z,7.60
2022-09-21T14:17:40.284Z,10.30
2022-09-21T14:24:05.310Z,6.72
2022-09-21T14:27:19.573Z,6.78
2022-09-21T14:30:26.088Z,5.65
2022-09-21T14:33:33.870Z,8.57
2022-09-21T14:36:41.766Z,5.05
2022-09-21T14:39:48.666Z,7.75
2022-09-21T14:42:56.710Z,7.13
2022-09-21T14:46:17.339Z,5.55
2022-09-21T14:49:29.016Z,7.03
2022-09-21T14:52:38.525Z,7.15
2022-09-21T14:55:50.886Z,7.70
2022-09-21T14:59:07.893Z,6.07
2022-09-21T15:02:21.077Z,7.65
2022-09-21T15:05:29.972Z,5.18
2022-09-21T15:08:58.366Z,6.75
2022-09-21T15:12:10.093Z,6.30
2022-09-21T15:15:26.575Z,7.50
2022-09-21T15:18:35.482Z,3.67
2022-09-21T15:21:43.600Z,5.85
2022-09-21T15:24:52.619Z,7.85
2022-09-21T15:27:58.145Z,8.93
2022-09-21T15:31:07.737Z,7.07
2022-09-21T15:34:13.995Z,7.05
2022-09-21T15:37:20.276Z,6.90
2022-09-21T15:40:26.301Z,7.93
2022-09-21T15:43:31.410Z,5.75
2022-09-21T15:46:40.312Z,5.45
2022-09-21T15:49:45.897Z,5.95
2022-09-21T15:52:53.233Z,6.28
2022-09-21T15:56:01.247Z,5.03
2022-09-21T15:59:09.126Z,5.95
2022-09-21T16:02:22.348Z,8.32
2022-09-21T16:05:28.093Z,4.88
2022-09-21T16:08:34.808Z,6.43
2022-09-21T16:11:40.144Z,5.47
2022-09-21T16:15:03.754Z,8.27
2022-09-21T16:18:32.278Z,6.55
2022-09-21T16:21:38.690Z,7.88
2022-09-21T16:24:47.724Z,5.93
2022-09-21T16:27:54.300Z,7.40
2022-09-21T16:31:00.109Z,7.32
2022-09-21T16:34:09.473Z,5.43
2022-09-21T16:37:25.381Z,5.13
2022-09-21T16:40:31.035Z,5.15
2022-09-21T16:43:36.138Z,9.55
2022-09-21T16:46:41.713Z,11.75
2022-09-21T16:49:49.689Z,7.47
2022-09-21T16:52:55.152Z,7.88
2022-09-21T16:56:00.627Z,10.75
2022-09-21T16:59:09.226Z,7.15
2022-09-21T17:05:22.162Z,8.95
2022-09-21T17:08:27.860Z,8.60
2022-09-21T17:11:33.204Z,7.68
2022-09-21T17:14:42.940Z,6.80
2022-09-21T17:17:49.553Z,9.40
2022-09-21T17:20:57.161Z,6.10
2022-09-21T17:24:02.214Z,7.95
2022-09-21T17:27:07.308Z,7.35
2022-09-21T17:30:15.889Z,9.57
2022-09-21T17:36:29.544Z,9.25
2022-09-21T17:39:34.663Z,8.73
2022-09-21T17:42:42.053Z,7.35
2022-09-21T17:45:50.693Z,8.25
2022-09-21T17:48:56.259Z,10.82
2022-09-21T17:52:16.760Z,15.23
2022-09-21T17:55:22.397Z,5.68
2022-09-21T17:58:42.481Z,8.65
2022-09-21T18:01:47.912Z,6.45
2022-09-21T18:04:54.053Z,7.10
2022-09-21T18:08:02.197Z,5.47
2022-09-21T18:11:15.366Z,10.23
2022-09-21T18:14:25.379Z,8.93
2022-09-21T18:17:39.577Z,6.40
2022-09-21T18:20:54.393Z,6.70
2022-09-21T18:24:10.720Z,3.78
2022-09-21T18:27:20.235Z,5.65
2022-09-21T18:30:26.597Z,2.75
2022-09-21T18:33:37.473Z,5.85
2022-09-21T18:36:46.395Z,5.00
2022-09-21T18:39:58.110Z,4.55
2022-09-21T18:43:07.074Z,6.68
2022-09-21T18:46:15.162Z,5.32
2022-09-21T18:49:27.330Z,5.30
2022-09-21T18:52:39.239Z,5.15
2022-09-21T18:55:47.700Z,4.57
2022-09-21T18:58:53.067Z,6.03
2022-09-21T19:01:59.484Z,5.05
2022-09-21T19:05:06.161Z,6.20
2022-09-21T19:08:13.701Z,6.97
2022-09-21T19:11:25.205Z,7.80
2022-09-21T19:14:36.052Z,8.02
2022-09-21T19:17:46.878Z,7.85
2022-09-21T19:21:10.589Z,7.53
2022-09-21T19:24:18.473Z,8.70
2022-09-21T19:27:29.295Z,11.50
2022-09-21T19:30:34.755Z,8.48
2022-09-21T19:33:49.870Z,9.70
2022-09-21T19:36:57.461Z,9.07
2022-09-21T19:40:03.028Z,7.65
2022-09-21T19:43:16.047Z,7.13
2022-09-21T19:46:24.434Z,5.88
2022-09-21T19:49:33.718Z,6.50
2022-09-21T19:52:39.344Z,10.77
2022-09-21T19:55:58.824Z,7.55
2022-09-21T19:59:24.755Z,11.52
2022-09-21T20:02:32.782Z,11.30
2022-09-21T20:05:45.936Z,8.43
2022-09-21T20:08:54.769Z,10.63
2022-09-21T20:15:10.420Z,14.43
2022-09-21T20:18:21.049Z,10.35
2022-09-21T20:21:27.351Z,11.93
2022-09-21T20:24:34.700Z,7.22
2022-09-21T20:27:42.065Z,7.72
2022-09-21T20:30:50.497Z,9.13
2022-09-21T20:33:55.737Z,9.98
2022-09-21T20:37:00.884Z,11.73
2022-09-21T20:40:06.347Z,9.25
2022-09-21T20:43:11.899Z,9.43
2022-09-21T20:46:19.558Z,9.05
2022-09-21T20:49:24.622Z,8.50
2022-09-21T20:52:29.743Z,9.55
2022-09-21T20:55:34.934Z,9.63
2022-09-21T20:58:40.087Z,9.93
2022-09-21T21:01:48.166Z,6.45
2022-09-21T21:04:53.298Z,8.00
2022-09-21T21:07:58.427Z,7.20
2022-09-21T21:11:03.490Z,9.07
2022-09-21T21:17:26.091Z,7.68
2022-09-21T21:20:31.737Z,7.00
2022-09-21T21:23:56.854Z,9.93
2022-09-21T21:27:03.147Z,9.40
2022-09-21T21:30:09.653Z,7.82
2022-09-21T21:33:17.304Z,8.45
2022-09-21T21:36:22.510Z,7.50
2022-09-21T21:39:27.532Z,8.40
2022-09-21T21:42:32.737Z,8.48
2022-09-21T21:45:38.198Z,8.95
2022-09-21T21:48:45.915Z,9.30
2022-09-21T21:51:52.705Z,10.43
2022-09-21T21:54:57.864Z,8.25
2022-09-21T21:58:02.986Z,7.90
2022-09-21T22:01:11.815Z,8.38
2022-09-21T22:04:20.982Z,7.57
2022-09-21T22:07:28.506Z,10.02
2022-09-21T22:10:34.309Z,8.88
2022-09-21T22:13:40.410Z,8.65
2022-09-21T22:16:45.644Z,8.18
2022-09-21T22:19:54.435Z,6.05
2022-09-21T22:26:04.920Z,7.40
2022-09-21T22:29:10.584Z,9.70
2022-09-21T22:32:15.682Z,8.13
2022-09-21T22:35:23.605Z,7.43
2022-09-21T22:38:30.232Z,7.27
2022-09-21T22:41:37.726Z,7.18
2022-09-21T22:44:42.656Z,7.15
2022-09-21T22:47:48.530Z,10.05
2022-09-21T22:50:56.442Z,8.88
2022-09-21T22:54:01.870Z,7.85
2022-09-21T22:57:07.391Z,8.90
2022-09-21T23:00:13.259Z,10.05
2022-09-21T23:03:18.217Z,8.98
2022-09-21T23:06:26.871Z,8.60
2022-09-21T23:09:32.103Z,7.55
2022-09-21T23:12:37.564Z,13.90
2022-09-21T23:15:42.513Z,8.18
2022-09-21T23:18:47.872Z,9.38
2022-09-21T23:21:55.447Z,8.70
2022-09-21T23:25:00.524Z,6.93
2022-09-21T23:28:05.753Z,7.97
2022-09-21T23:31:12.012Z,10.25
2022-09-21T23:34:17.790Z,7.20
2022-09-21T23:37:25.355Z,7.38
2022-09-21T23:40:30.617Z,9.57
2022-09-21T23:43:36.138Z,7.72
2022-09-21T23:46:41.812Z,9.63
2022-09-21T23:49:46.802Z,6.40
2022-09-21T23:52:54.417Z,8.63
2022-09-21T23:56:00.809Z,6.73
2022-09-21T23:59:05.879Z,8.00
